createdAt,value
2023-02-02T00:00:08.339Z,26.43
2023-02-02T00:00:40.739Z,26.33
2023-02-02T00:01:13.179Z,26.22
2023-02-02T00:01:47.045Z,26.19
2023-02-02T00:02:19.437Z,26.25
2023-02-02T00:02:51.851Z,26.22
2023-02-02T00:03:24.431Z,26.27
2023-02-02T00:03:57.790Z,26.28
2023-02-02T00:04:36.105Z,26.24
2023-02-02T00:05:09.642Z,26.29
2023-02-02T00:05:49.399Z,26.29
2023-02-02T00:06:23.071Z,26.24
2023-02-02T00:06:59.182Z,26.28
2023-02-02T00:07:31.571Z,26.21
2023-02-02T00:08:04.344Z,26.31
2023-02-02T00:08:39.237Z,26.23
2023-02-02T00:09:14.288Z,26.35
2023-02-02T00:09:46.659Z,26.30
2023-02-02T00:10:19.082Z,26.29
2023-02-02T00:10:51.565Z,26.26
2023-02-02T00:11:23.977Z,26.23
2023-02-02T00:11:56.583Z,26.28
2023-02-02T00:12:28.947Z,26.29
2023-02-02T00:13:01.410Z,26.23
2023-02-02T00:13:34.178Z,26.28
2023-02-02T00:14:07.909Z,26.29
2023-02-02T00:14:40.309Z,26.26
2023-02-02T00:15:12.751Z,26.30
2023-02-02T00:15:45.287Z,26.26
2023-02-02T00:16:29.717Z,26.21
2023-02-02T00:17:02.106Z,26.22
2023-02-02T00:17:34.486Z,26.22
2023-02-02T00:18:06.874Z,26.25
2023-02-02T00:18:39.292Z,26.18
2023-02-02T00:19:15.060Z,26.15
2023-02-02T00:19:47.445Z,26.18
2023-02-02T00:20:19.884Z,26.14
2023-02-02T00:20:53.718Z,26.06
2023-02-02T00:21:26.581Z,26.04
2023-02-02T00:21:59.369Z,26.13
2023-02-02T00:22:31.752Z,26.16
2023-02-02T00:23:04.382Z,26.14
2023-02-02T00:23:36.759Z,26.10
2023-02-02T00:24:11.630Z,26.15
2023-02-02T00:24:43.965Z,26.22
2023-02-02T00:25:16.371Z,26.24
2023-02-02T00:25:51.115Z,26.33
2023-02-02T00:26:23.681Z,26.16
2023-02-02T00:26:58.502Z,26.15
2023-02-02T00:27:30.862Z,26.18
2023-02-02T00:28:03.262Z,26.22
2023-02-02T00:28:35.638Z,26.21
2023-02-02T00:29:10.937Z,26.18
2023-02-02T00:29:43.308Z,26.19
2023-02-02T00:30:16.478Z,26.19
2023-02-02T00:30:48.897Z,26.20
2023-02-02T00:31:21.342Z,26.25
2023-02-02T00:31:54.519Z,26.29
2023-02-02T00:32:26.963Z,26.26
2023-02-02T00:32:59.348Z,26.19
2023-02-02T00:33:31.750Z,26.25
2023-02-02T00:34:04.260Z,26.17
2023-02-02T00:34:36.612Z,26.15
2023-02-02T00:35:09.899Z,26.12
2023-02-02T00:35:42.624Z,26.16
2023-02-02T00:36:15.626Z,26.13
2023-02-02T00:36:48.861Z,26.14
2023-02-02T00:37:21.251Z,26.06
2023-02-02T00:37:53.633Z,26.03
2023-02-02T00:38:26.294Z,26.14
2023-02-02T00:38:58.683Z,26.16
2023-02-02T00:39:31.144Z,26.16
2023-02-02T00:40:03.535Z,26.16
2023-02-02T00:40:35.904Z,26.18
2023-02-02T00:41:08.387Z,26.08
2023-02-02T00:41:40.799Z,26.14
2023-02-02T00:42:13.168Z,26.10
2023-02-02T00:42:49.166Z,26.17
2023-02-02T00:43:21.624Z,26.19
2023-02-02T00:44:12.623Z,26.17
2023-02-02T00:45:03.542Z,26.20
2023-02-02T00:45:35.938Z,26.20
2023-02-02T00:46:13.020Z,26.13
2023-02-02T00:46:45.416Z,26.12
2023-02-02T00:47:18.181Z,26.18
2023-02-02T00:47:50.805Z,26.16
2023-02-02T00:48:23.567Z,26.15
2023-02-02T00:48:55.940Z,26.17
2023-02-02T00:49:28.360Z,26.13
2023-02-02T00:50:00.731Z,26.14
2023-02-02T00:50:33.514Z,26.14
2023-02-02T00:51:06.166Z,26.19
2023-02-02T00:51:39.055Z,26.10
2023-02-02T00:52:11.449Z,26.13
2023-02-02T00:52:43.955Z,26.18
2023-02-02T00:53:16.341Z,26.17
2023-02-02T00:53:48.748Z,26.17
2023-02-02T00:54:21.192Z,26.21
2023-02-02T00:54:53.572Z,26.13
2023-02-02T00:55:27.060Z,26.07
2023-02-02T00:55:59.433Z,26.02
2023-02-02T00:56:31.799Z,26.08
2023-02-02T00:57:04.422Z,26.12
2023-02-02T00:57:36.837Z,26.08
2023-02-02T00:58:09.221Z,26.09
2023-02-02T00:58:41.620Z,26.10
2023-02-02T00:59:14.329Z,26.05
2023-02-02T00:59:46.732Z,26.11
2023-02-02T01:00:23.612Z,26.04
2023-02-02T01:00:56.086Z,26.08
2023-02-02T01:01:28.832Z,26.23
2023-02-02T01:02:02.101Z,26.08
2023-02-02T01:02:35.680Z,26.06
2023-02-02T01:03:08.097Z,26.17
2023-02-02T01:03:40.463Z,26.10
2023-02-02T01:04:12.865Z,26.00
2023-02-02T01:04:45.259Z,26.12
2023-02-02T01:05:17.970Z,26.12
2023-02-02T01:05:52.068Z,26.09
2023-02-02T01:06:24.500Z,26.12
2023-02-02T01:06:56.872Z,26.10
2023-02-02T01:07:29.408Z,26.07
2023-02-02T01:08:01.985Z,26.04
2023-02-02T01:08:34.365Z,25.98
2023-02-02T01:09:06.728Z,26.07
2023-02-02T01:09:39.106Z,26.04
2023-02-02T01:10:18.555Z,26.02
2023-02-02T01:10:50.925Z,26.04
2023-02-02T01:11:23.527Z,26.05
2023-02-02T01:11:56.194Z,26.12
2023-02-02T01:12:28.572Z,26.12
2023-02-02T01:13:01.059Z,26.10
2023-02-02T01:13:33.908Z,26.14
2023-02-02T01:14:06.537Z,26.12
2023-02-02T01:14:38.937Z,26.04
2023-02-02T01:15:12.815Z,26.09
2023-02-02T01:15:45.212Z,26.14
2023-02-02T01:16:18.084Z,26.10
2023-02-02T01:16:50.557Z,26.01
2023-02-02T01:17:22.955Z,26.05
2023-02-02T01:17:55.363Z,26.13
2023-02-02T01:18:28.854Z,26.03
2023-02-02T01:19:01.315Z,26.20
2023-02-02T01:19:33.832Z,26.21
2023-02-02T01:20:07.655Z,26.15
2023-02-02T01:20:40.035Z,26.17
2023-02-02T01:21:13.427Z,26.03
2023-02-02T01:21:45.935Z,26.01
2023-02-02T01:22:18.439Z,26.05
2023-02-02T01:22:51.796Z,26.12
2023-02-02T01:23:24.326Z,26.06
2023-02-02T01:23:56.718Z,26.05
2023-02-02T01:24:29.092Z,26.02
2023-02-02T01:25:02.345Z,26.04
2023-02-02T01:25:38.433Z,26.05
2023-02-02T01:26:12.428Z,26.01
2023-02-02T01:26:44.873Z,25.97
2023-02-02T01:27:17.402Z,26.03
2023-02-02T01:27:50.020Z,26.06
2023-02-02T01:28:22.851Z,25.99
2023-02-02T01:28:55.245Z,26.14
2023-02-02T01:29:27.689Z,26.13
2023-02-02T01:30:00.100Z,26.02
2023-02-02T01:30:32.647Z,25.92
2023-02-02T01:31:15.130Z,25.88
2023-02-02T01:31:47.896Z,25.98
2023-02-02T01:32:20.306Z,26.05
2023-02-02T01:32:54.948Z,25.93
2023-02-02T01:33:27.312Z,25.95
2023-02-02T01:33:59.678Z,26.03
2023-02-02T01:34:32.038Z,26.13
2023-02-02T01:35:04.535Z,26.12
2023-02-02T01:35:36.911Z,26.04
2023-02-02T01:36:12.830Z,25.97
2023-02-02T01:36:45.224Z,25.96
2023-02-02T01:37:17.683Z,25.91
2023-02-02T01:37:50.071Z,25.87
2023-02-02T01:38:23.712Z,25.82
2023-02-02T01:38:56.260Z,25.85
2023-02-02T01:39:28.696Z,25.88
2023-02-02T01:40:01.074Z,25.95
2023-02-02T01:40:33.474Z,25.98
2023-02-02T01:41:07.276Z,25.88
2023-02-02T01:41:41.765Z,25.91
2023-02-02T01:42:16.463Z,25.95
2023-02-02T01:42:48.823Z,25.86
2023-02-02T01:43:30.583Z,25.85
2023-02-02T01:44:05.483Z,25.89
2023-02-02T01:45:08.654Z,25.86
2023-02-02T01:45:41.093Z,25.90
2023-02-02T01:46:31.468Z,25.76
2023-02-02T01:47:03.859Z,25.75
2023-02-02T01:47:43.994Z,25.78
2023-02-02T01:48:17.131Z,25.75
2023-02-02T01:48:59.448Z,25.87
2023-02-02T01:49:31.826Z,25.87
2023-02-02T01:50:05.499Z,25.82
2023-02-02T01:50:37.914Z,25.93
2023-02-02T01:51:17.866Z,25.79
2023-02-02T01:51:55.836Z,25.80
2023-02-02T01:52:30.205Z,25.75
2023-02-02T01:53:06.153Z,25.71
2023-02-02T01:53:39.079Z,25.81
2023-02-02T01:54:25.872Z,25.73
2023-02-02T01:55:08.405Z,25.71
2023-02-02T01:55:42.672Z,25.72
2023-02-02T01:56:19.924Z,25.78
2023-02-02T01:56:59.143Z,25.75
2023-02-02T01:57:40.627Z,25.76
2023-02-02T01:58:19.380Z,25.73
2023-02-02T01:58:52.002Z,25.69
2023-02-02T01:59:25.266Z,25.79
2023-02-02T02:00:01.247Z,25.77
2023-02-02T02:00:33.658Z,25.69
2023-02-02T02:01:06.629Z,25.72
2023-02-02T02:01:39.020Z,25.70
2023-02-02T02:02:12.033Z,25.71
2023-02-02T02:02:49.934Z,25.75
2023-02-02T02:03:26.033Z,25.88
2023-02-02T02:03:58.503Z,25.82
2023-02-02T02:04:32.567Z,25.73
2023-02-02T02:05:06.135Z,25.69
2023-02-02T02:05:56.140Z,25.81
2023-02-02T02:06:29.286Z,25.77
2023-02-02T02:07:03.874Z,25.65
2023-02-02T02:07:36.646Z,25.62
2023-02-02T02:08:18.647Z,25.67
2023-02-02T02:09:00.975Z,25.61
2023-02-02T02:09:34.828Z,25.66
2023-02-02T02:10:07.853Z,25.61
2023-02-02T02:10:40.351Z,25.58
2023-02-02T02:11:12.769Z,25.53
2023-02-02T02:11:45.143Z,25.55
2023-02-02T02:12:17.966Z,25.61
2023-02-02T02:12:50.377Z,25.51
2023-02-02T02:13:45.510Z,25.59
2023-02-02T02:14:36.875Z,25.49
2023-02-02T02:15:28.748Z,25.62
2023-02-02T02:16:21.158Z,25.56
2023-02-02T02:17:18.802Z,25.55
2023-02-02T02:17:51.130Z,25.42
2023-02-02T02:18:36.698Z,25.58
2023-02-02T02:19:21.144Z,25.61
2023-02-02T02:20:17.732Z,25.48
2023-02-02T02:21:35.728Z,25.60
2023-02-02T02:22:34.112Z,25.69
2023-02-02T02:23:39.863Z,25.63
2023-02-02T02:25:13.771Z,25.53
2023-02-02T02:26:04.999Z,25.57
2023-02-02T02:26:49.267Z,25.58
2023-02-02T02:27:39.573Z,25.61
2023-02-02T02:28:39.081Z,25.62
2023-02-02T02:29:20.143Z,25.50
2023-02-02T02:30:18.394Z,25.63
2023-02-02T02:31:11.690Z,25.56
2023-02-02T02:32:24.665Z,25.57
2023-02-02T02:33:32.548Z,25.61
2023-02-02T02:34:37.539Z,25.43
2023-02-02T02:35:30.818Z,25.57
2023-02-02T02:36:41.995Z,25.57
2023-02-02T02:37:30.795Z,25.52
2023-02-02T02:38:22.791Z,25.51
2023-02-02T02:39:11.816Z,25.57
2023-02-02T02:39:51.767Z,25.55
2023-02-02T02:40:32.830Z,25.54
2023-02-02T02:41:11.790Z,25.58
2023-02-02T02:41:51.323Z,25.58
2023-02-02T02:42:27.655Z,25.49
2023-02-02T02:43:04.675Z,25.59
2023-02-02T02:43:47.335Z,25.62
2023-02-02T02:44:21.184Z,25.45
2023-02-02T02:44:56.128Z,25.55
2023-02-02T02:45:29.997Z,25.55
2023-02-02T02:46:03.563Z,25.47
2023-02-02T02:46:37.334Z,25.51
2023-02-02T02:47:10.530Z,25.46
2023-02-02T02:47:43.411Z,25.46
2023-02-02T02:48:15.793Z,25.47
2023-02-02T02:48:48.386Z,25.54
2023-02-02T02:49:20.793Z,25.48
2023-02-02T02:49:53.270Z,25.50
2023-02-02T02:50:25.685Z,25.41
2023-02-02T02:51:45.052Z,25.54
2023-02-02T02:52:17.480Z,25.57
2023-02-02T02:52:58.093Z,25.66
2023-02-02T02:53:30.590Z,25.72
2023-02-02T02:54:03.161Z,25.59
2023-02-02T02:54:38.778Z,25.52
2023-02-02T02:55:12.869Z,25.47
2023-02-02T02:55:54.250Z,25.52
2023-02-02T02:56:34.350Z,25.45
2023-02-02T02:57:27.950Z,25.49
2023-02-02T02:58:09.119Z,25.48
2023-02-02T02:58:55.983Z,25.51
2023-02-02T02:59:40.049Z,25.55
2023-02-02T03:00:30.426Z,25.55
2023-02-02T03:01:21.493Z,25.51
2023-02-02T03:02:24.415Z,25.62
2023-02-02T03:03:04.669Z,25.63
2023-02-02T03:03:51.760Z,25.55
2023-02-02T03:04:58.849Z,25.60
2023-02-02T03:05:41.428Z,25.55
2023-02-02T03:06:22.758Z,25.74
2023-02-02T03:06:55.116Z,25.66
2023-02-02T03:07:37.907Z,25.64
2023-02-02T03:08:25.126Z,25.70
2023-02-02T03:09:06.013Z,25.67
2023-02-02T03:09:42.753Z,25.58
2023-02-02T03:10:19.521Z,25.63
2023-02-02T03:10:53.592Z,25.64
2023-02-02T03:11:26.049Z,25.58
2023-02-02T03:11:59.723Z,25.48
2023-02-02T03:12:32.127Z,25.54
2023-02-02T03:13:09.011Z,25.55
2023-02-02T03:13:42.927Z,25.53
2023-02-02T03:14:15.369Z,25.58
2023-02-02T03:14:47.735Z,25.67
2023-02-02T03:15:20.367Z,25.55
2023-02-02T03:15:52.853Z,25.56
2023-02-02T03:16:25.475Z,25.65
2023-02-02T03:16:57.842Z,25.65
2023-02-02T03:17:30.210Z,25.54
2023-02-02T03:18:02.619Z,25.60
2023-02-02T03:18:35.799Z,25.56
2023-02-02T03:19:08.419Z,25.64
2023-02-02T03:19:40.840Z,25.64
2023-02-02T03:20:13.387Z,25.66
2023-02-02T03:20:46.456Z,25.72
2023-02-02T03:21:18.811Z,25.68
2023-02-02T03:21:51.192Z,25.57
2023-02-02T03:22:23.581Z,25.71
2023-02-02T03:22:55.972Z,25.82
2023-02-02T03:23:28.513Z,25.82
2023-02-02T03:24:01.402Z,25.82
2023-02-02T03:24:33.789Z,25.73
2023-02-02T03:25:07.334Z,25.71
2023-02-02T03:25:39.789Z,25.73
2023-02-02T03:26:12.335Z,25.73
2023-02-02T03:26:46.187Z,25.79
2023-02-02T03:27:18.588Z,25.77
2023-02-02T03:27:51.758Z,25.68
2023-02-02T03:28:25.309Z,25.77
2023-02-02T03:28:58.021Z,25.67
2023-02-02T03:29:30.555Z,25.62
2023-02-02T03:30:02.955Z,25.64
2023-02-02T03:30:35.853Z,25.67
2023-02-02T03:31:08.645Z,25.69
2023-02-02T03:31:41.262Z,25.72
2023-02-02T03:32:13.713Z,25.71
2023-02-02T03:32:47.308Z,25.71
2023-02-02T03:33:19.988Z,25.73
2023-02-02T03:33:52.366Z,25.73
2023-02-02T03:34:24.747Z,25.70
2023-02-02T03:34:57.133Z,25.73
2023-02-02T03:35:29.614Z,25.74
2023-02-02T03:36:02.001Z,25.75
2023-02-02T03:36:34.462Z,25.70
2023-02-02T03:37:06.863Z,25.73
2023-02-02T03:37:39.260Z,25.79
2023-02-02T03:38:12.678Z,25.77
2023-02-02T03:38:45.055Z,25.79
2023-02-02T03:39:17.431Z,25.83
2023-02-02T03:39:49.801Z,25.86
2023-02-02T03:40:22.286Z,26.00
2023-02-02T03:40:54.706Z,25.94
2023-02-02T03:41:27.138Z,25.85
2023-02-02T03:41:59.510Z,25.85
2023-02-02T03:42:31.864Z,25.87
2023-02-02T03:43:04.238Z,25.91
2023-02-02T03:43:36.618Z,25.95
2023-02-02T03:44:09.017Z,25.88
2023-02-02T03:44:41.395Z,25.89
2023-02-02T03:45:13.778Z,25.92
2023-02-02T03:45:46.179Z,25.88
2023-02-02T03:46:18.614Z,25.93
2023-02-02T03:46:54.734Z,25.89
2023-02-02T03:47:30.046Z,25.94
2023-02-02T03:48:05.763Z,25.98
2023-02-02T03:48:39.593Z,25.87
2023-02-02T03:49:12.004Z,26.00
2023-02-02T03:49:44.413Z,25.88
2023-02-02T03:50:17.541Z,25.76
2023-02-02T03:50:49.989Z,25.82
2023-02-02T03:51:22.396Z,25.90
2023-02-02T03:51:54.771Z,26.02
2023-02-02T03:52:27.285Z,25.84
2023-02-02T03:52:59.714Z,25.83
2023-02-02T03:53:32.104Z,25.84
2023-02-02T03:54:04.959Z,25.95
2023-02-02T03:54:37.326Z,25.93
2023-02-02T03:55:09.935Z,25.97
2023-02-02T03:55:42.319Z,26.03
2023-02-02T03:56:14.868Z,26.06
2023-02-02T03:56:47.258Z,25.94
2023-02-02T03:57:19.667Z,25.99
2023-02-02T03:57:52.031Z,25.95
2023-02-02T03:58:24.593Z,26.01
2023-02-02T03:58:56.989Z,25.93
2023-02-02T03:59:29.403Z,26.01
2023-02-02T04:00:01.828Z,25.96
2023-02-02T04:00:34.362Z,26.07
2023-02-02T04:01:08.529Z,26.26
2023-02-02T04:01:41.001Z,25.99
2023-02-02T04:02:13.419Z,25.89
2023-02-02T04:02:45.859Z,26.14
2023-02-02T04:03:18.400Z,26.00
2023-02-02T04:03:51.191Z,25.87
2023-02-02T04:04:23.600Z,26.04
2023-02-02T04:04:56.161Z,26.19
2023-02-02T04:05:28.715Z,25.82
2023-02-02T04:06:01.746Z,25.73
2023-02-02T04:06:34.134Z,25.67
2023-02-02T04:07:06.562Z,25.69
2023-02-02T04:07:38.974Z,25.55
2023-02-02T04:08:11.348Z,25.59
2023-02-02T04:08:43.721Z,25.60
2023-02-02T04:09:16.100Z,25.49
2023-02-02T04:09:48.464Z,25.47
2023-02-02T04:10:21.334Z,25.47
2023-02-02T04:10:53.730Z,25.63
2023-02-02T04:11:26.149Z,25.58
2023-02-02T04:11:58.529Z,25.47
2023-02-02T04:12:30.897Z,25.55
2023-02-02T04:13:03.281Z,25.59
2023-02-02T04:13:35.660Z,25.57
2023-02-02T04:14:08.073Z,25.51
2023-02-02T04:14:40.464Z,25.51
2023-02-02T04:15:12.887Z,25.43
2023-02-02T04:15:45.369Z,25.47
2023-02-02T04:16:17.934Z,25.51
2023-02-02T04:16:50.367Z,25.41
2023-02-02T04:17:22.736Z,25.38
2023-02-02T04:17:55.123Z,25.39
2023-02-02T04:18:27.571Z,25.36
2023-02-02T04:18:59.948Z,25.41
2023-02-02T04:19:32.365Z,25.33
2023-02-02T04:20:06.279Z,25.31
2023-02-02T04:20:38.729Z,25.35
2023-02-02T04:21:11.333Z,25.35
2023-02-02T04:21:43.860Z,25.32
2023-02-02T04:22:16.261Z,25.30
2023-02-02T04:22:48.642Z,25.29
2023-02-02T04:23:21.034Z,25.27
2023-02-02T04:23:53.482Z,25.25
2023-02-02T04:24:25.896Z,25.24
2023-02-02T04:24:58.276Z,25.24
2023-02-02T04:25:30.676Z,25.25
2023-02-02T04:26:03.510Z,25.25
2023-02-02T04:26:35.902Z,25.24
2023-02-02T04:27:08.351Z,25.24
2023-02-02T04:27:40.778Z,25.23
2023-02-02T04:28:13.177Z,25.21
2023-02-02T04:28:45.567Z,25.21
2023-02-02T04:29:17.978Z,25.19
2023-02-02T04:29:50.349Z,25.17
2023-02-02T04:30:22.790Z,25.17
2023-02-02T04:30:56.865Z,25.15
2023-02-02T04:31:30.043Z,25.15
2023-02-02T04:32:02.533Z,25.15
2023-02-02T04:32:34.903Z,25.14
2023-02-02T04:33:07.282Z,25.13
2023-02-02T04:33:39.683Z,25.11
2023-02-02T04:34:12.107Z,25.11
2023-02-02T04:34:45.328Z,25.10
2023-02-02T04:35:17.739Z,25.10
2023-02-02T04:35:50.307Z,25.11
2023-02-02T04:36:22.775Z,25.10
2023-02-02T04:36:56.055Z,25.08
2023-02-02T04:37:28.432Z,25.07
2023-02-02T04:38:00.835Z,25.05
2023-02-02T04:38:33.229Z,25.04
2023-02-02T04:39:06.453Z,25.04
2023-02-02T04:39:38.851Z,25.04
2023-02-02T04:40:11.852Z,25.03
2023-02-02T04:40:46.312Z,25.02
2023-02-02T04:41:18.953Z,25.01
2023-02-02T04:41:51.407Z,25.00
2023-02-02T04:42:23.813Z,24.97
2023-02-02T04:42:58.696Z,24.96
2023-02-02T04:43:31.072Z,24.94
2023-02-02T04:44:03.787Z,24.95
2023-02-02T04:44:36.177Z,24.95
2023-02-02T04:45:08.941Z,24.91
2023-02-02T04:45:42.418Z,24.89
2023-02-02T04:46:15.248Z,24.89
2023-02-02T04:46:47.631Z,24.87
2023-02-02T04:47:20.022Z,24.85
2023-02-02T04:47:52.436Z,24.85
2023-02-02T04:48:24.870Z,24.84
2023-02-02T04:48:57.281Z,24.83
2023-02-02T04:49:30.502Z,24.82
2023-02-02T04:50:02.929Z,24.82
2023-02-02T04:50:35.514Z,24.81
2023-02-02T04:51:11.040Z,24.79
2023-02-02T04:51:44.076Z,24.79
2023-02-02T04:52:16.613Z,24.77
2023-02-02T04:52:49.097Z,24.75
2023-02-02T04:53:21.497Z,24.75
2023-02-02T04:53:53.875Z,24.75
2023-02-02T04:54:26.348Z,24.72
2023-02-02T04:54:58.715Z,24.72
2023-02-02T04:55:31.098Z,24.72
2023-02-02T04:56:08.676Z,24.70
2023-02-02T04:56:41.053Z,24.68
2023-02-02T04:57:13.417Z,24.65
2023-02-02T04:57:45.788Z,24.64
2023-02-02T04:58:19.517Z,24.62
2023-02-02T04:58:55.814Z,24.60
2023-02-02T04:59:31.002Z,24.58
2023-02-02T05:00:03.416Z,24.58
2023-02-02T05:00:35.787Z,24.57
2023-02-02T05:01:12.750Z,24.56
2023-02-02T05:01:45.193Z,24.55
2023-02-02T05:02:17.633Z,24.55
2023-02-02T05:02:50.029Z,24.54
2023-02-02T05:03:22.435Z,24.53
2023-02-02T05:03:54.845Z,24.53
2023-02-02T05:04:27.668Z,24.51
2023-02-02T05:05:00.213Z,24.50
2023-02-02T05:05:32.586Z,24.49
2023-02-02T05:06:06.372Z,24.47
2023-02-02T05:06:39.200Z,24.47
2023-02-02T05:07:11.611Z,24.46
2023-02-02T05:07:44.113Z,24.44
2023-02-02T05:08:16.524Z,24.44
2023-02-02T05:08:49.470Z,24.44
2023-02-02T05:09:21.910Z,24.44
2023-02-02T05:09:54.277Z,24.43
2023-02-02T05:10:26.928Z,24.41
2023-02-02T05:10:59.432Z,24.40
2023-02-02T05:11:31.897Z,24.39
2023-02-02T05:12:04.644Z,24.38
2023-02-02T05:12:37.091Z,24.36
2023-02-02T05:13:09.819Z,24.34
2023-02-02T05:13:49.040Z,24.34
2023-02-02T05:14:21.474Z,24.33
2023-02-02T05:14:53.874Z,24.33
2023-02-02T05:15:27.146Z,24.33
2023-02-02T05:15:59.622Z,24.32
2023-02-02T05:16:32.108Z,24.31
2023-02-02T05:17:04.493Z,24.30
2023-02-02T05:17:36.860Z,24.28
2023-02-02T05:18:09.244Z,24.28
2023-02-02T05:18:43.198Z,24.28
2023-02-02T05:19:16.907Z,24.28
2023-02-02T05:19:49.292Z,24.30
2023-02-02T05:20:21.664Z,24.29
2023-02-02T05:20:55.025Z,24.27
2023-02-02T05:21:27.612Z,24.27
2023-02-02T05:22:00.000Z,24.26
2023-02-02T05:22:32.514Z,24.26
2023-02-02T05:23:04.918Z,24.25
2023-02-02T05:23:37.308Z,24.24
2023-02-02T05:24:09.868Z,24.23
2023-02-02T05:24:42.239Z,24.21
2023-02-02T05:25:14.646Z,24.21
2023-02-02T05:25:53.252Z,24.20
2023-02-02T05:26:28.496Z,24.20
2023-02-02T05:27:01.113Z,24.18
2023-02-02T05:27:33.752Z,24.18
2023-02-02T05:28:06.225Z,24.19
2023-02-02T05:28:38.675Z,24.16
2023-02-02T05:29:11.107Z,24.15
2023-02-02T05:29:43.493Z,24.15
2023-02-02T05:30:16.568Z,24.14
2023-02-02T05:30:49.212Z,24.12
2023-02-02T05:31:22.003Z,24.12
2023-02-02T05:31:54.999Z,24.12
2023-02-02T05:32:29.815Z,24.11
2023-02-02T05:33:02.280Z,24.10
2023-02-02T05:33:34.655Z,24.08
2023-02-02T05:34:11.353Z,24.10
2023-02-02T05:34:43.840Z,24.11
2023-02-02T05:35:16.269Z,24.09
2023-02-02T05:35:49.734Z,24.08
2023-02-02T05:36:22.202Z,24.07
2023-02-02T05:36:54.581Z,24.06
2023-02-02T05:37:26.972Z,24.06
2023-02-02T05:37:59.451Z,24.05
2023-02-02T05:38:31.901Z,24.04
2023-02-02T05:39:05.626Z,24.06
2023-02-02T05:39:38.077Z,24.05
2023-02-02T05:40:11.272Z,24.04
2023-02-02T05:40:43.792Z,24.05
2023-02-02T05:41:16.224Z,24.04
2023-02-02T05:41:48.634Z,24.04
2023-02-02T05:42:21.011Z,24.03
2023-02-02T05:42:53.464Z,24.03
2023-02-02T05:43:27.344Z,24.03
2023-02-02T05:44:00.790Z,24.01
2023-02-02T05:44:33.336Z,24.00
2023-02-02T05:45:06.068Z,24.01
2023-02-02T05:45:40.593Z,23.99
2023-02-02T05:46:13.115Z,23.99
2023-02-02T05:46:46.032Z,23.99
2023-02-02T05:47:18.482Z,23.99
2023-02-02T05:47:50.877Z,24.00
2023-02-02T05:48:23.274Z,24.00
2023-02-02T05:48:56.963Z,23.99
2023-02-02T05:49:29.406Z,23.99
2023-02-02T05:50:02.580Z,23.98
2023-02-02T05:50:35.025Z,23.97
2023-02-02T05:51:19.105Z,23.97
2023-02-02T05:51:55.345Z,23.96
2023-02-02T05:52:35.884Z,23.96
2023-02-02T05:53:08.417Z,23.97
2023-02-02T05:53:40.844Z,23.97
2023-02-02T05:54:17.358Z,23.96
2023-02-02T05:54:49.852Z,23.96
2023-02-02T05:55:22.453Z,23.96
2023-02-02T05:55:55.003Z,23.96
2023-02-02T05:56:27.389Z,23.95
2023-02-02T05:57:01.295Z,23.96
2023-02-02T05:57:33.694Z,23.96
2023-02-02T05:58:06.087Z,23.93
2023-02-02T05:58:38.540Z,23.94
2023-02-02T05:59:10.914Z,23.93
2023-02-02T05:59:43.336Z,23.93
2023-02-02T06:00:16.049Z,23.94
2023-02-02T06:00:48.412Z,23.95
2023-02-02T06:01:22.213Z,23.94
2023-02-02T06:01:55.394Z,23.93
2023-02-02T06:02:27.811Z,23.92
2023-02-02T06:03:00.285Z,23.91
2023-02-02T06:03:32.826Z,23.89
2023-02-02T06:04:05.345Z,23.89
2023-02-02T06:04:37.719Z,23.88
2023-02-02T06:05:10.349Z,23.90
2023-02-02T06:05:42.786Z,23.92
2023-02-02T06:06:15.263Z,23.92
2023-02-02T06:06:48.101Z,23.92
2023-02-02T06:07:20.501Z,23.89
2023-02-02T06:07:52.886Z,23.89
2023-02-02T06:08:25.287Z,23.89
2023-02-02T06:08:57.937Z,23.91
2023-02-02T06:09:30.394Z,23.91
2023-02-02T06:10:02.826Z,23.90
2023-02-02T06:10:35.218Z,23.90
2023-02-02T06:11:15.453Z,23.89
2023-02-02T06:11:47.821Z,23.91
2023-02-02T06:12:20.223Z,23.91
2023-02-02T06:12:52.623Z,23.90
2023-02-02T06:13:25.054Z,23.88
2023-02-02T06:13:57.658Z,23.90
2023-02-02T06:14:30.149Z,23.89
2023-02-02T06:15:02.597Z,23.90
2023-02-02T06:15:35.917Z,23.91
2023-02-02T06:16:08.774Z,23.91
2023-02-02T06:16:41.224Z,23.90
2023-02-02T06:17:13.656Z,23.91
2023-02-02T06:17:46.079Z,23.89
2023-02-02T06:18:18.498Z,23.87
2023-02-02T06:18:51.177Z,23.85
2023-02-02T06:19:23.569Z,23.86
2023-02-02T06:19:55.981Z,23.85
2023-02-02T06:20:29.196Z,23.85
2023-02-02T06:21:02.990Z,23.84
2023-02-02T06:21:35.387Z,23.83
2023-02-02T06:22:07.772Z,23.82
2023-02-02T06:22:40.152Z,23.81
2023-02-02T06:23:12.575Z,23.81
2023-02-02T06:23:46.005Z,23.81
2023-02-02T06:24:18.491Z,23.82
2023-02-02T06:24:53.374Z,23.81
2023-02-02T06:25:25.981Z,23.80
2023-02-02T06:25:58.539Z,23.81
2023-02-02T06:26:31.695Z,23.81
2023-02-02T06:27:04.240Z,23.80
2023-02-02T06:27:36.788Z,23.79
2023-02-02T06:28:09.499Z,23.78
2023-02-02T06:28:42.723Z,23.77
2023-02-02T06:29:15.281Z,23.74
2023-02-02T06:29:47.677Z,23.74
2023-02-02T06:30:20.205Z,23.73
2023-02-02T06:30:52.733Z,23.73
2023-02-02T06:31:25.398Z,23.71
2023-02-02T06:31:57.965Z,23.70
2023-02-02T06:32:30.885Z,23.67
2023-02-02T06:33:03.273Z,23.69
2023-02-02T06:33:36.022Z,23.68
2023-02-02T06:34:08.723Z,23.68
2023-02-02T06:34:41.096Z,23.68
2023-02-02T06:35:13.511Z,23.69
2023-02-02T06:35:45.961Z,23.68
2023-02-02T06:36:18.382Z,23.69
2023-02-02T06:36:50.800Z,23.67
2023-02-02T06:37:23.183Z,23.68
2023-02-02T06:37:55.643Z,23.65
2023-02-02T06:38:28.561Z,23.62
2023-02-02T06:39:02.341Z,23.62
2023-02-02T06:39:34.761Z,23.62
2023-02-02T06:40:10.992Z,23.62
2023-02-02T06:40:43.493Z,23.62
2023-02-02T06:41:15.951Z,23.61
2023-02-02T06:41:48.460Z,23.60
2023-02-02T06:42:22.031Z,23.60
2023-02-02T06:42:58.666Z,23.59
2023-02-02T06:43:31.736Z,23.56
2023-02-02T06:44:04.732Z,23.57
2023-02-02T06:44:37.187Z,23.57
2023-02-02T06:45:10.219Z,23.54
2023-02-02T06:45:42.613Z,23.55
2023-02-02T06:46:15.242Z,23.56
2023-02-02T06:46:47.909Z,23.54
2023-02-02T06:47:20.471Z,23.53
2023-02-02T06:47:53.778Z,23.53
2023-02-02T06:48:27.193Z,23.53
2023-02-02T06:48:59.659Z,23.55
2023-02-02T06:49:32.031Z,23.55
2023-02-02T06:50:05.307Z,23.55
2023-02-02T06:50:38.573Z,23.54
2023-02-02T06:51:11.020Z,23.54
2023-02-02T06:51:43.491Z,23.53
2023-02-02T06:52:15.881Z,23.55
2023-02-02T06:52:53.225Z,23.54
2023-02-02T06:53:26.654Z,23.53
2023-02-02T06:53:59.652Z,23.56
2023-02-02T06:54:32.141Z,23.57
2023-02-02T06:55:04.722Z,23.56
2023-02-02T06:55:37.112Z,23.57
2023-02-02T06:56:13.388Z,23.56
2023-02-02T06:56:45.791Z,23.55
2023-02-02T06:57:18.188Z,23.55
2023-02-02T06:57:57.656Z,23.56
2023-02-02T06:58:31.379Z,23.56
2023-02-02T06:59:03.772Z,23.57
2023-02-02T06:59:36.716Z,23.57
2023-02-02T07:00:09.928Z,23.56
2023-02-02T07:00:42.385Z,23.56
2023-02-02T07:01:15.194Z,23.54
2023-02-02T07:01:50.283Z,23.53
2023-02-02T07:02:23.497Z,23.52
2023-02-02T07:02:56.491Z,23.52
2023-02-02T07:03:28.899Z,23.52
2023-02-02T07:04:01.305Z,23.52
2023-02-02T07:04:33.700Z,23.52
2023-02-02T07:05:06.444Z,23.52
2023-02-02T07:05:39.375Z,23.51
2023-02-02T07:06:17.091Z,23.50
2023-02-02T07:06:49.695Z,23.48
2023-02-02T07:07:22.121Z,23.48
2023-02-02T07:07:54.525Z,23.47
2023-02-02T07:08:26.913Z,23.49
2023-02-02T07:09:02.779Z,23.49
2023-02-02T07:09:36.067Z,23.49
2023-02-02T07:10:08.936Z,23.48
2023-02-02T07:11:11.897Z,23.49
2023-02-02T07:11:48.485Z,23.47
2023-02-02T07:12:20.868Z,23.47
2023-02-02T07:12:55.294Z,23.49
2023-02-02T07:13:27.818Z,23.48
2023-02-02T07:14:00.194Z,23.47
2023-02-02T07:14:32.574Z,23.47
2023-02-02T07:15:05.530Z,23.47
2023-02-02T07:15:41.572Z,23.47
2023-02-02T07:16:14.736Z,23.48
2023-02-02T07:16:47.193Z,23.48
2023-02-02T07:17:19.747Z,23.48
2023-02-02T07:17:52.179Z,23.47
2023-02-02T07:18:24.643Z,23.46
2023-02-02T07:18:57.674Z,23.46
2023-02-02T07:19:30.134Z,23.46
2023-02-02T07:20:02.526Z,23.46
2023-02-02T07:20:35.482Z,23.46
2023-02-02T07:21:08.046Z,23.47
2023-02-02T07:21:40.483Z,23.48
2023-02-02T07:22:12.969Z,23.48
2023-02-02T07:22:45.605Z,23.47
2023-02-02T07:23:18.106Z,23.47
2023-02-02T07:23:51.090Z,23.46
2023-02-02T07:24:23.552Z,23.47
2023-02-02T07:24:55.998Z,23.46
2023-02-02T07:25:28.382Z,23.46